Aeroporto :
LOGIN :

Iscrizione | Disclaimer

   EN    FR    IT 

 










Sommario :    VFR   VFR Marginale   IFR   IFR Intensivo   IFR Molto Intensivo
Visibilità : 
Base nubi : 
>= 8 km
>= 3000ft
5 / 8 km
1000 / 3000 ft
1500m / 5 km
500 / 1000 ft
800 / 1500m
200 / 500 ft
< 800m
< 200 ft
Simboli :   Temporali  Nebbia  Neve Forte  Precipitazioni Forti  Vento > 20 kt
SIGMETs :   Varie  Temporali  Ghiacco  Turbolenza  Onda orograficha  Ceneri Vulcaniche






- Altitudine del aeroporto : 183 ft
- Codice IATA : HAJ


EDDV - Hanover/Langenhagen Int.

ULTIMO METAR :
  • 161850Z 22024G39KT 190V250 CAVOK 18/06 Q0996 TEMPO 22030G45KT

METARs OBSOLETI :
  • 161820Z 22021G36KT 180V250 CAVOK 17/06 Q0996 TEMPO 22030G45KT
  • 161750Z 22024G40KT 190V250 CAVOK 18/07 Q0997 TEMPO 22030G45KT
  • 161720Z 22022G32KT CAVOK 18/08 Q0997 TEMPO 22030G45KT
  • 161650Z 22021G34KT CAVOK 17/08 Q0998 TEMPO 22030G45KT
  • 161620Z 22017G30KT CAVOK 17/08 Q0998 TEMPO 20025G40KT

TAF AMD TAF EDDV
Valido dal 16 a 19 ore il 17 a 18 ore UTC


161910Z 1619/1718 22020G35KT 9999 BKN030
TEMPO 1619/1622 23030G55KT
PROB30
TEMPO 1621/1701 29025G45KT 3500 RA BKN012
BECMG 1701/1703 25015G30KT



MetMap, La meteo Aeronautica in un colpo d'occhio ! - Copyright ORBIFLY Dicembre 2007 - Disclaimer

ORBIFLY MET'MAP TEAM :

Programmazione e sviluppo : Alexandra Zaïnal
Concezione : Baudouin d'Aumeries
Aiuto per la programmazione : Marc-Olivier Méhu
Supporto tecnico e logistico : Manuel Goepfert
Aiuto per la traduzione : Arnaldo La Scala

Contatto : metmap@orbifly.com




FONTI E CREDITI :

   NOAA